createdAt,value
2016-09-25T00:00:38.358Z,52.78
2016-09-25T00:01:38.378Z,53.16
2016-09-25T00:02:38.402Z,52.97
2016-09-25T00:03:38.425Z,53.07
2016-09-25T00:04:38.441Z,53.07
2016-09-25T00:05:38.469Z,52.87
2016-09-25T00:06:38.495Z,52.87
2016-09-25T00:07:38.515Z,53.26
2016-09-25T00:08:38.529Z,53.07
2016-09-25T00:09:38.551Z,53.26
2016-09-25T00:10:38.571Z,53.36
2016-09-25T00:11:38.600Z,53.16
2016-09-25T00:12:38.620Z,53.26
2016-09-25T00:13:38.641Z,53.36
2016-09-25T00:14:38.661Z,52.87
2016-09-25T00:15:38.679Z,52.97
2016-09-25T00:16:38.705Z,53.26
2016-09-25T00:17:38.722Z,53.45
2016-09-25T00:18:38.748Z,53.36
2016-09-25T00:19:38.775Z,52.69
2016-09-25T00:20:38.793Z,53.36
2016-09-25T00:21:38.813Z,52.69
2016-09-25T00:22:38.843Z,52.59
2016-09-25T00:23:38.864Z,53.83
2016-09-25T00:24:38.875Z,53.55
2016-09-25T00:25:38.902Z,53.55
2016-09-25T00:26:38.922Z,53.74
2016-09-25T00:27:38.945Z,53.55
2016-09-25T00:28:38.960Z,53.07
2016-09-25T00:29:38.980Z,53.55
2016-09-25T00:30:39.000Z,53.55
2016-09-25T00:31:39.024Z,53.55
2016-09-25T00:32:39.044Z,53.74
2016-09-25T00:33:39.065Z,53.74
2016-09-25T00:34:39.088Z,53.16
2016-09-25T00:35:39.112Z,53.55
2016-09-25T00:36:39.131Z,52.95
2016-09-25T00:37:39.154Z,53.36
2016-09-25T00:38:39.177Z,53.45
2016-09-25T00:39:39.206Z,53.33
2016-09-25T00:40:39.219Z,53.52
2016-09-25T00:41:39.239Z,53.55
2016-09-25T00:42:39.260Z,53.52
2016-09-25T00:43:39.280Z,53.93
2016-09-25T00:44:39.300Z,54.19
2016-09-25T00:45:39.322Z,53.91
2016-09-25T00:46:39.347Z,53.91
2016-09-25T00:47:39.365Z,54.1
2016-09-25T00:48:39.388Z,53.91
2016-09-25T00:49:39.411Z,54.1
2016-09-25T00:50:39.432Z,53.91
2016-09-25T00:51:39.451Z,54.19
2016-09-25T00:52:39.474Z,54
2016-09-25T00:53:39.497Z,54.57
2016-09-25T00:54:39.524Z,53.62
2016-09-25T00:55:39.539Z,54.28
2016-09-25T00:56:39.558Z,54.19
2016-09-25T00:57:39.578Z,54.38
2016-09-25T00:58:39.602Z,53.71
2016-09-25T00:59:39.621Z,54.38
2016-09-25T01:00:39.643Z,54.38
2016-09-25T01:01:39.665Z,54.1
2016-09-25T01:02:39.686Z,54.1
2016-09-25T01:03:39.707Z,53.81
2016-09-25T01:04:39.729Z,54.77
2016-09-25T01:05:39.748Z,54.28
2016-09-25T01:06:39.771Z,54.67
2016-09-25T01:07:39.797Z,54.38
2016-09-25T01:08:39.814Z,54.48
2016-09-25T01:09:39.837Z,54.48
2016-09-25T01:10:39.853Z,54.28
2016-09-25T01:11:39.879Z,54.38
2016-09-25T01:12:39.900Z,54.48
2016-09-25T01:13:39.921Z,54.19
2016-09-25T01:14:39.940Z,54.67
2016-09-25T01:15:39.960Z,54.48
2016-09-25T01:16:39.987Z,54.28
2016-09-25T01:17:40.003Z,54.38
2016-09-25T01:18:40.025Z,54.57
2016-09-25T01:19:40.049Z,54.77
2016-09-25T01:20:40.065Z,54.57
2016-09-25T01:21:40.089Z,54.77
2016-09-25T01:22:40.108Z,54.86
2016-09-25T01:23:40.132Z,54.19
2016-09-25T01:24:40.152Z,54.19
2016-09-25T01:25:40.174Z,54.77
2016-09-25T01:26:40.196Z,55.05
2016-09-25T01:27:40.212Z,54.96
2016-09-25T01:28:40.238Z,54.48
2016-09-25T01:29:40.263Z,55.05
2016-09-25T01:30:40.278Z,54.67
2016-09-25T01:31:40.299Z,54.38
2016-09-25T01:32:40.318Z,54.93
2016-09-25T01:33:40.355Z,54.86
2016-09-25T01:34:40.362Z,55.05
2016-09-25T01:35:40.399Z,55.05
2016-09-25T01:36:40.410Z,55.12
2016-09-25T01:37:40.426Z,55.15
2016-09-25T01:38:40.447Z,54.96
2016-09-25T01:39:40.469Z,55.12
2016-09-25T01:40:40.488Z,55.22
2016-09-25T01:41:40.508Z,55.02
2016-09-25T01:42:40.536Z,55.12
2016-09-25T01:43:40.553Z,54.96
2016-09-25T01:44:40.571Z,55.41
2016-09-25T01:45:40.593Z,55.31
2016-09-25T01:46:40.615Z,55.02
2016-09-25T01:47:40.635Z,54.93
2016-09-25T01:48:40.656Z,55.6
2016-09-25T01:49:40.677Z,55.02
2016-09-25T01:50:40.697Z,55.6
2016-09-25T01:51:40.721Z,55.51
2016-09-25T01:52:40.744Z,55.31
2016-09-25T01:53:40.763Z,55.02
2016-09-25T01:54:40.787Z,55.6
2016-09-25T01:55:40.806Z,55.41
2016-09-25T01:56:40.823Z,54.93
2016-09-25T01:57:40.843Z,55.12
2016-09-25T01:58:40.866Z,55.31
2016-09-25T01:59:40.886Z,55.02
2016-09-25T02:00:40.907Z,55.51
2016-09-25T02:01:40.929Z,55.51
2016-09-25T02:02:40.949Z,55.6
2016-09-25T02:03:40.970Z,55.41
2016-09-25T02:04:40.989Z,55.22
2016-09-25T02:05:41.012Z,55.79
2016-09-25T02:06:41.032Z,55.22
2016-09-25T02:07:41.052Z,55.69
2016-09-25T02:08:41.075Z,55.69
2016-09-25T02:09:41.095Z,55.79
2016-09-25T02:10:41.116Z,55.22
2016-09-25T02:11:41.142Z,55.98
2016-09-25T02:12:41.162Z,55.88
2016-09-25T02:13:41.181Z,55.79
2016-09-25T02:14:41.199Z,55.79
2016-09-25T02:15:41.222Z,55.88
2016-09-25T02:16:41.242Z,55.6
2016-09-25T02:17:41.263Z,55.51
2016-09-25T02:18:41.286Z,55.98
2016-09-25T02:19:41.305Z,55.88
2016-09-25T02:20:41.330Z,55.79
2016-09-25T02:21:41.348Z,55.88
2016-09-25T02:22:41.367Z,55.88
2016-09-25T02:23:41.395Z,55.88
2016-09-25T02:24:41.407Z,56.08
2016-09-25T02:25:41.429Z,55.98
2016-09-25T02:26:41.460Z,55.88
2016-09-25T02:27:41.469Z,55.69
2016-09-25T02:28:41.519Z,55.88
2016-09-25T02:29:41.516Z,55.69
2016-09-25T02:30:41.534Z,56.17
2016-09-25T02:31:41.553Z,55.88
2016-09-25T02:32:41.576Z,56.08
2016-09-25T02:33:41.597Z,56.27
2016-09-25T02:34:41.617Z,56.17
2016-09-25T02:35:41.636Z,56.17
2016-09-25T02:36:41.657Z,56.27
2016-09-25T02:37:41.678Z,56.24
2016-09-25T02:38:41.698Z,56.05
2016-09-25T02:39:41.732Z,56.17
2016-09-25T02:40:41.740Z,56.43
2016-09-25T02:41:41.759Z,55.96
2016-09-25T02:42:41.785Z,56.82
2016-09-25T02:43:41.813Z,56.43
2016-09-25T02:44:41.827Z,56.91
2016-09-25T02:45:41.843Z,56.43
2016-09-25T02:46:41.864Z,56.62
2016-09-25T02:47:41.886Z,56.53
2016-09-25T02:48:41.905Z,56.72
2016-09-25T02:49:41.927Z,56.43
2016-09-25T02:50:41.947Z,56.91
2016-09-25T02:51:41.972Z,56.72
2016-09-25T02:52:41.988Z,56.72
2016-09-25T02:53:42.014Z,56.62
2016-09-25T02:54:42.028Z,56.72
2016-09-25T02:55:42.048Z,56.62
2016-09-25T02:56:42.181Z,57.01
2016-09-25T02:57:42.196Z,56.24
2016-09-25T02:58:42.201Z,56.34
2016-09-25T02:59:42.234Z,57.01
2016-09-25T03:00:42.242Z,57.1
2016-09-25T03:01:42.240Z,56.91
2016-09-25T03:02:42.250Z,56.72
2016-09-25T03:03:42.260Z,57.01
2016-09-25T03:04:42.269Z,57.48
2016-09-25T03:05:42.278Z,56.72
2016-09-25T03:06:42.277Z,57.48
2016-09-25T03:07:42.419Z,56.72
2016-09-25T03:08:42.355Z,56.62
2016-09-25T03:09:42.362Z,56.53
2016-09-25T03:10:42.362Z,56.82
2016-09-25T03:11:42.378Z,57.01
2016-09-25T03:12:42.493Z,56.82
2016-09-25T03:13:42.501Z,57.2
2016-09-25T03:14:42.510Z,56.82
2016-09-25T03:15:42.535Z,56.82
2016-09-25T03:16:42.543Z,56.91
2016-09-25T03:17:42.552Z,57.1
2016-09-25T03:18:42.560Z,57.2
2016-09-25T03:19:42.571Z,57.1
2016-09-25T03:20:42.569Z,56.72
2016-09-25T03:21:42.584Z,57.29
2016-09-25T03:22:42.617Z,57.29
2016-09-25T03:23:42.624Z,57.01
2016-09-25T03:24:42.645Z,57.39
2016-09-25T03:25:42.673Z,57.01
2016-09-25T03:26:42.696Z,57.1
2016-09-25T03:27:42.707Z,57.29
2016-09-25T03:28:42.731Z,57.29
2016-09-25T03:29:42.748Z,57.1
2016-09-25T03:30:42.769Z,57.29
2016-09-25T03:31:42.788Z,57.58
2016-09-25T03:32:42.811Z,57.58
2016-09-25T03:33:42.828Z,57.39
2016-09-25T03:34:42.852Z,57.58
2016-09-25T03:35:42.872Z,57.1
2016-09-25T03:36:42.893Z,57.39
2016-09-25T03:37:42.912Z,57.29
2016-09-25T03:38:42.929Z,57.68
2016-09-25T03:39:42.953Z,57.01
2016-09-25T03:40:42.974Z,57.2
2016-09-25T03:41:42.994Z,57.39
2016-09-25T03:42:43.012Z,57.2
2016-09-25T03:43:43.032Z,57.48
2016-09-25T03:44:43.054Z,57.48
2016-09-25T03:45:43.072Z,57.39
2016-09-25T03:46:43.097Z,57.29
2016-09-25T03:47:43.118Z,57.39
2016-09-25T03:48:43.148Z,57.39
2016-09-25T03:49:43.163Z,57.48
2016-09-25T03:50:43.180Z,57.39
2016-09-25T03:51:43.513Z,57.58
2016-09-25T03:52:43.218Z,57.77
2016-09-25T03:53:43.237Z,57.77
2016-09-25T03:54:43.258Z,57.77
2016-09-25T03:55:43.285Z,58.06
2016-09-25T03:56:43.301Z,57.58
2016-09-25T03:57:43.316Z,57.77
2016-09-25T03:58:43.340Z,58.03
2016-09-25T03:59:43.361Z,57.68
2016-09-25T04:00:43.381Z,57.46
2016-09-25T04:01:43.399Z,57.87
2016-09-25T04:02:43.435Z,57.93
2016-09-25T04:03:43.443Z,57.84
2016-09-25T04:04:43.460Z,57.87
2016-09-25T04:05:43.485Z,57.84
2016-09-25T04:06:43.501Z,57.65
2016-09-25T04:07:43.521Z,57.97
2016-09-25T04:08:43.541Z,58.03
2016-09-25T04:09:43.559Z,58.12
2016-09-25T04:10:43.583Z,58.15
2016-09-25T04:11:43.603Z,58.03
2016-09-25T04:12:43.628Z,58.12
2016-09-25T04:13:43.642Z,57.93
2016-09-25T04:14:43.664Z,58.03
2016-09-25T04:15:43.685Z,57.93
2016-09-25T04:16:43.708Z,58.12
2016-09-25T04:17:43.727Z,58.32
2016-09-25T04:18:43.746Z,58.12
2016-09-25T04:19:43.764Z,57.84
2016-09-25T04:20:43.784Z,58.03
2016-09-25T04:21:43.804Z,58.12
2016-09-25T04:22:43.825Z,58.22
2016-09-25T04:23:43.847Z,58.03
2016-09-25T04:24:44.203Z,57.93
2016-09-25T04:25:43.890Z,58.12
2016-09-25T04:26:43.909Z,58.12
2016-09-25T04:27:43.926Z,58.32
2016-09-25T04:28:43.949Z,58.03
2016-09-25T04:29:43.968Z,58.03
2016-09-25T04:30:43.986Z,58.61
2016-09-25T04:31:44.005Z,58.61
2016-09-25T04:32:44.033Z,58.61
2016-09-25T04:33:44.168Z,58.32
2016-09-25T04:34:44.180Z,58.32
2016-09-25T04:35:44.181Z,58.12
2016-09-25T04:36:44.200Z,58.32
2016-09-25T04:37:44.648Z,57.93
2016-09-25T04:38:44.338Z,57.93
2016-09-25T04:39:44.347Z,58.03
2016-09-25T04:40:44.346Z,59.08
2016-09-25T04:41:44.353Z,58.89
2016-09-25T04:42:44.503Z,58.89
2016-09-25T04:43:44.371Z,58.89
2016-09-25T04:44:44.379Z,58.89
2016-09-25T04:45:44.378Z,58.8
2016-09-25T04:46:44.522Z,58.8
2016-09-25T04:47:44.545Z,58.89
2016-09-25T04:48:44.539Z,58.8
2016-09-25T04:49:44.554Z,58.7
2016-09-25T04:50:44.495Z,58.89
2016-09-25T04:51:44.515Z,58.89
2016-09-25T04:52:44.542Z,58.8
2016-09-25T04:53:44.836Z,58.89
2016-09-25T04:54:44.554Z,58.8
2016-09-25T04:55:44.554Z,58.7
2016-09-25T04:56:44.565Z,58.7
2016-09-25T04:57:44.584Z,58.7
2016-09-25T04:58:44.581Z,58.8
2016-09-25T04:59:44.590Z,58.7
2016-09-25T05:00:44.594Z,58.89
2016-09-25T05:01:44.612Z,58.98
2016-09-25T05:02:44.636Z,58.61
2016-09-25T05:03:44.654Z,58.41
2016-09-25T05:04:44.689Z,58.7
2016-09-25T05:05:44.694Z,59.27
2016-09-25T05:06:44.721Z,58.51
2016-09-25T05:07:44.737Z,58.51
2016-09-25T05:08:44.764Z,59.27
2016-09-25T05:09:44.775Z,59.37
2016-09-25T05:10:44.795Z,58.8
2016-09-25T05:11:44.813Z,58.51
2016-09-25T05:12:44.836Z,58.8
2016-09-25T05:13:44.854Z,59.08
2016-09-25T05:14:44.872Z,58.7
2016-09-25T05:15:44.896Z,59.37
2016-09-25T05:16:44.915Z,59.08
2016-09-25T05:17:44.950Z,59.47
2016-09-25T05:18:44.954Z,58.98
2016-09-25T05:19:44.972Z,58.98
2016-09-25T05:20:44.995Z,59.08
2016-09-25T05:21:45.014Z,59.18
2016-09-25T05:22:45.035Z,59.08
2016-09-25T05:23:45.055Z,59.08
2016-09-25T05:24:45.076Z,58.89
2016-09-25T05:25:45.096Z,59.27
2016-09-25T05:26:45.114Z,59.18
2016-09-25T05:27:45.135Z,58.98
2016-09-25T05:28:45.156Z,59.18
2016-09-25T05:29:45.172Z,59.66
2016-09-25T05:30:45.204Z,58.98
2016-09-25T05:31:45.217Z,59.66
2016-09-25T05:32:45.237Z,58.89
2016-09-25T05:33:45.257Z,59.75
2016-09-25T05:34:45.275Z,59.66
2016-09-25T05:35:45.298Z,59.47
2016-09-25T05:36:45.316Z,59.27
2016-09-25T05:37:45.336Z,59.37
2016-09-25T05:38:45.360Z,59.08
2016-09-25T05:39:45.377Z,59.47
2016-09-25T05:40:45.394Z,58.98
2016-09-25T05:41:45.419Z,59.37
2016-09-25T05:42:45.437Z,59.47
2016-09-25T05:43:45.457Z,59.47
2016-09-25T05:44:45.476Z,59.27
2016-09-25T05:45:45.496Z,59.27
2016-09-25T05:46:45.516Z,59.37
2016-09-25T05:47:45.536Z,59.47
2016-09-25T05:48:45.559Z,59.66
2016-09-25T05:49:45.576Z,59.47
2016-09-25T05:50:45.595Z,59.66
2016-09-25T05:51:45.616Z,59.75
2016-09-25T05:52:45.636Z,59.66
2016-09-25T05:53:45.657Z,59.66
2016-09-25T05:54:45.676Z,59.66
2016-09-25T05:55:45.696Z,59.84
2016-09-25T05:56:45.716Z,60.23
2016-09-25T05:57:45.983Z,60.13
2016-09-25T05:58:45.757Z,60.04
2016-09-25T05:59:45.774Z,60.04
2016-09-25T06:00:45.794Z,60.23
2016-09-25T06:01:45.815Z,60.13
2016-09-25T06:02:45.834Z,60.13
2016-09-25T06:03:45.854Z,59.94
2016-09-25T06:04:45.875Z,60.04
2016-09-25T06:05:45.894Z,59.66
2016-09-25T06:06:45.914Z,60.04
2016-09-25T06:07:45.939Z,60.33
2016-09-25T06:08:45.954Z,60.13
2016-09-25T06:09:45.975Z,60.23
2016-09-25T06:10:45.998Z,60.42
2016-09-25T06:11:46.016Z,60.23
2016-09-25T06:12:46.035Z,60.42
2016-09-25T06:13:46.054Z,59.94
2016-09-25T06:14:46.074Z,60.42
2016-09-25T06:15:46.094Z,60.13
2016-09-25T06:16:46.115Z,60.23
2016-09-25T06:17:46.134Z,60.23
2016-09-25T06:18:46.155Z,60.42
2016-09-25T06:19:46.175Z,60.33
2016-09-25T06:20:46.193Z,60.35
2016-09-25T06:21:46.215Z,60.23
2016-09-25T06:22:46.233Z,60.35
2016-09-25T06:23:46.254Z,60.04
2016-09-25T06:24:46.274Z,60.06
2016-09-25T06:25:46.294Z,60.33
2016-09-25T06:26:46.314Z,60.35
2016-09-25T06:27:46.333Z,60.64
2016-09-25T06:28:46.354Z,60.93
2016-09-25T06:29:46.380Z,60.16
2016-09-25T06:30:46.396Z,60.93
2016-09-25T06:31:46.410Z,60.55
2016-09-25T06:32:46.434Z,60.06
2016-09-25T06:33:46.455Z,60.83
2016-09-25T06:34:46.795Z,60.55
2016-09-25T06:35:46.494Z,59.88
2016-09-25T06:36:46.515Z,60.26
2016-09-25T06:37:46.535Z,60.55
2016-09-25T06:38:46.555Z,60.26
2016-09-25T06:39:46.574Z,60.74
2016-09-25T06:40:46.595Z,60.45
2016-09-25T06:41:46.618Z,60.45
2016-09-25T06:42:46.634Z,60.45
2016-09-25T06:43:46.653Z,60.16
2016-09-25T06:44:46.674Z,60.64
2016-09-25T06:45:46.694Z,60.83
2016-09-25T06:46:46.716Z,60.93
2016-09-25T06:47:46.738Z,60.55
2016-09-25T06:48:46.756Z,61.02
2016-09-25T06:49:46.775Z,60.64
2016-09-25T06:50:46.795Z,61.12
2016-09-25T06:51:46.832Z,60.64
2016-09-25T06:52:46.841Z,60.64
2016-09-25T06:53:46.856Z,60.64
2016-09-25T06:54:46.876Z,60.74
2016-09-25T06:55:46.892Z,60.64
2016-09-25T06:56:46.917Z,60.93
2016-09-25T06:57:46.944Z,60.93
2016-09-25T06:58:46.968Z,60.93
2016-09-25T06:59:46.978Z,60.74
2016-09-25T07:00:46.998Z,61.02
2016-09-25T07:01:47.017Z,61.02
2016-09-25T07:02:47.038Z,61.12
2016-09-25T07:03:47.057Z,60.93
2016-09-25T07:04:47.394Z,60.55
2016-09-25T07:05:47.098Z,60.55
2016-09-25T07:06:47.123Z,60.83
2016-09-25T07:07:47.137Z,60.35
2016-09-25T07:08:47.174Z,61.15
2016-09-25T07:09:47.185Z,60.96
2016-09-25T07:10:47.207Z,60.67
2016-09-25T07:11:47.221Z,60.48
2016-09-25T07:12:47.241Z,60.86
2016-09-25T07:13:47.265Z,61.05
2016-09-25T07:14:47.284Z,61.34
2016-09-25T07:15:47.301Z,61.25
2016-09-25T07:16:47.320Z,61.34
2016-09-25T07:17:47.341Z,61.15
2016-09-25T07:18:47.367Z,61.25
2016-09-25T07:19:47.382Z,61.25
2016-09-25T07:20:47.405Z,61.44
2016-09-25T07:21:47.423Z,61.15
2016-09-25T07:22:47.441Z,61.44
2016-09-25T07:23:47.462Z,61.25
2016-09-25T07:24:47.483Z,61.34
2016-09-25T07:25:47.505Z,61.15
2016-09-25T07:26:47.524Z,60.96
2016-09-25T07:27:47.550Z,60.48
2016-09-25T07:28:47.564Z,60.77
2016-09-25T07:29:47.586Z,60.77
2016-09-25T07:30:47.613Z,61.44
2016-09-25T07:31:47.627Z,61.18
2016-09-25T07:32:47.647Z,61.28
2016-09-25T07:33:47.666Z,61.28
2016-09-25T07:34:47.687Z,61.28
2016-09-25T07:35:47.709Z,61.28
2016-09-25T07:36:47.729Z,61.18
2016-09-25T07:37:47.749Z,61.28
2016-09-25T07:38:47.766Z,61.18
2016-09-25T07:39:47.805Z,61.37
2016-09-25T07:40:47.811Z,61.08
2016-09-25T07:41:47.828Z,61.28
2016-09-25T07:42:48.171Z,61.08
2016-09-25T07:43:47.874Z,61.08
2016-09-25T07:44:47.900Z,61.21
2016-09-25T07:45:47.911Z,60.93
2016-09-25T07:46:47.932Z,61.02
2016-09-25T07:47:47.954Z,61.02
2016-09-25T07:48:47.988Z,61.11
2016-09-25T07:49:47.993Z,61.21
2016-09-25T07:50:48.017Z,61.11
2016-09-25T07:51:48.037Z,61.31
2016-09-25T07:52:48.058Z,61.11
2016-09-25T07:53:48.084Z,61.11
2016-09-25T07:54:48.097Z,61.02
2016-09-25T07:55:48.118Z,61.02
2016-09-25T07:56:48.138Z,60.93
2016-09-25T07:57:48.159Z,61.34
2016-09-25T07:58:48.190Z,61.24
2016-09-25T07:59:48.200Z,61.15
2016-09-25T08:00:48.221Z,61.53
2016-09-25T08:01:48.240Z,61.24
2016-09-25T08:02:48.262Z,61.43
2016-09-25T08:03:48.286Z,60.86
2016-09-25T08:04:48.310Z,60.96
2016-09-25T08:05:48.327Z,60.67
2016-09-25T08:06:48.347Z,61.05
2016-09-25T08:07:48.366Z,60.96
2016-09-25T08:08:48.389Z,61.08
2016-09-25T08:09:48.409Z,60.41
2016-09-25T08:10:48.434Z,60.41
2016-09-25T08:11:48.451Z,60.7
2016-09-25T08:12:48.472Z,60.31
2016-09-25T08:13:48.497Z,60.5
2016-09-25T08:14:48.523Z,60.7
2016-09-25T08:15:48.535Z,60.5
2016-09-25T08:16:48.883Z,60.41
2016-09-25T08:17:48.574Z,60.25
2016-09-25T08:18:48.596Z,60.35
2016-09-25T08:19:48.618Z,59.86
2016-09-25T08:20:48.640Z,59.67
2016-09-25T08:21:48.660Z,59.67
2016-09-25T08:22:48.681Z,59.67
2016-09-25T08:23:48.702Z,59.86
2016-09-25T08:24:48.722Z,59.96
2016-09-25T08:25:48.745Z,59.86
2016-09-25T08:26:48.779Z,59.61
2016-09-25T08:27:48.786Z,59.86
2016-09-25T08:28:48.808Z,59.41
2016-09-25T08:29:48.828Z,59.32
2016-09-25T08:30:48.851Z,59.7
2016-09-25T08:31:48.872Z,58.84
2016-09-25T08:32:48.896Z,58.94
2016-09-25T08:33:48.917Z,58.94
2016-09-25T08:34:48.935Z,58.58
2016-09-25T08:35:48.957Z,58.58
2016-09-25T08:36:48.980Z,58.1
2016-09-25T08:37:49.000Z,57.62
2016-09-25T08:38:49.021Z,57.33
2016-09-25T08:39:49.045Z,57.52
2016-09-25T08:40:49.068Z,57.33
2016-09-25T08:41:49.086Z,56.85
2016-09-25T08:42:49.108Z,56.88
2016-09-25T08:43:49.404Z,56.21
2016-09-25T08:44:49.156Z,56.4
2016-09-25T08:45:49.172Z,56.3
2016-09-25T08:46:49.194Z,56.01
2016-09-25T08:47:49.216Z,56.21
2016-09-25T08:48:49.238Z,56.01
2016-09-25T08:49:49.259Z,55.82
2016-09-25T08:50:49.280Z,55.34
2016-09-25T08:51:49.304Z,55.91
2016-09-25T08:52:49.326Z,55.76
2016-09-25T08:53:49.346Z,55.76
2016-09-25T08:54:49.367Z,55.18
2016-09-25T08:55:49.389Z,55.27
2016-09-25T08:56:49.415Z,55.37
2016-09-25T08:57:49.431Z,55.27
2016-09-25T08:58:49.458Z,55.27
2016-09-25T08:59:49.478Z,54.69
2016-09-25T09:00:49.498Z,55.27
2016-09-25T09:01:49.524Z,54.91
2016-09-25T09:02:49.542Z,55.11
2016-09-25T09:03:49.566Z,54.72
2016-09-25T09:04:49.587Z,54.24
2016-09-25T09:05:49.611Z,53.96
2016-09-25T09:06:49.631Z,54.43
2016-09-25T09:07:49.660Z,54.08
2016-09-25T09:08:49.677Z,53.66
2016-09-25T09:09:49.698Z,53.4
2016-09-25T09:10:49.721Z,53.31
2016-09-25T09:11:49.743Z,52.63
2016-09-25T09:12:49.766Z,52.54
2016-09-25T09:13:49.787Z,52.63
2016-09-25T09:14:49.809Z,52.63
2016-09-25T09:15:49.832Z,52.15
2016-09-25T09:16:49.856Z,52.08
2016-09-25T09:17:49.877Z,52.27
2016-09-25T09:18:49.897Z,51.6
2016-09-25T09:19:49.920Z,51.98
2016-09-25T09:20:49.944Z,51.5
2016-09-25T09:21:49.965Z,51.21
2016-09-25T09:22:49.991Z,51.21
2016-09-25T09:23:50.010Z,51.05
2016-09-25T09:24:50.033Z,50.85
2016-09-25T09:25:50.059Z,50.85
2016-09-25T09:26:50.080Z,50.76
2016-09-25T09:27:50.103Z,50.76
2016-09-25T09:28:50.127Z,50.18
2016-09-25T09:29:50.148Z,50.37
2016-09-25T09:30:50.484Z,50.49
2016-09-25T09:31:50.192Z,49.99
2016-09-25T09:32:50.214Z,49.89
2016-09-25T09:33:50.239Z,49.63
2016-09-25T09:34:50.262Z,49.63
2016-09-25T09:35:50.286Z,49.43
2016-09-25T09:36:50.324Z,49.53
2016-09-25T09:37:50.348Z,49.43
2016-09-25T09:38:50.356Z,49.63
2016-09-25T09:39:50.378Z,49.65
2016-09-25T09:40:50.398Z,49.65
2016-09-25T09:41:50.420Z,49.17
2016-09-25T09:42:50.447Z,48.88
2016-09-25T09:43:50.468Z,49.27
2016-09-25T09:44:50.492Z,48.88
2016-09-25T09:45:50.515Z,48.69
2016-09-25T09:46:50.537Z,48.81
2016-09-25T09:47:50.561Z,48.52
2016-09-25T09:48:50.584Z,48.42
2016-09-25T09:49:50.608Z,48.61
2016-09-25T09:50:50.631Z,48.71
2016-09-25T09:51:50.655Z,48.42
2016-09-25T09:52:50.677Z,48.13
2016-09-25T09:53:50.700Z,47.38
2016-09-25T09:54:50.725Z,47.67
2016-09-25T09:55:50.749Z,47.58
2016-09-25T09:56:50.769Z,47.29
2016-09-25T09:57:50.799Z,46.9
2016-09-25T09:58:50.818Z,46.9
2016-09-25T09:59:50.850Z,47
2016-09-25T10:00:50.865Z,47.19
2016-09-25T10:01:50.890Z,47
2016-09-25T10:02:50.912Z,47.02
2016-09-25T10:03:50.939Z,47.12
2016-09-25T10:04:50.961Z,46.64
2016-09-25T10:05:50.984Z,46.73
2016-09-25T10:06:51.011Z,46.64
2016-09-25T10:07:51.040Z,46.25
2016-09-25T10:08:51.059Z,45.98
2016-09-25T10:09:51.083Z,45.89
2016-09-25T10:10:51.107Z,45.59
2016-09-25T10:11:51.131Z,45.21
2016-09-25T10:12:51.157Z,45.01
2016-09-25T10:13:51.192Z,44.73
2016-09-25T10:14:51.209Z,44.92
2016-09-25T10:15:51.228Z,44.84
2016-09-25T10:16:51.252Z,44.75
2016-09-25T10:17:51.274Z,44.63
2016-09-25T10:18:51.302Z,44.65
2016-09-25T10:19:51.324Z,44.46
2016-09-25T10:20:51.356Z,44.26
2016-09-25T10:21:51.373Z,43.78
2016-09-25T10:22:51.398Z,44.17
2016-09-25T10:23:51.422Z,44.07
2016-09-25T10:24:51.449Z,43.41
2016-09-25T10:25:51.472Z,43.61
2016-09-25T10:26:51.498Z,43.71
2016-09-25T10:27:51.523Z,43.61
2016-09-25T10:28:51.650Z,43.71
2016-09-25T10:29:51.659Z,43.61
2016-09-25T10:30:51.686Z,43.73
2016-09-25T10:31:51.692Z,42.76
2016-09-25T10:32:51.702Z,42.96
2016-09-25T10:33:51.710Z,43.05
2016-09-25T10:34:51.719Z,42.96
2016-09-25T10:35:51.720Z,42.47
2016-09-25T10:36:51.860Z,42.47
2016-09-25T10:37:51.870Z,42.08
2016-09-25T10:38:51.824Z,41.99
2016-09-25T10:39:51.917Z,42.1
2016-09-25T10:40:51.911Z,41.52
2016-09-25T10:41:51.960Z,41.52
2016-09-25T10:42:51.969Z,41.24
2016-09-25T10:43:51.969Z,41.14
2016-09-25T10:44:51.979Z,41.33
2016-09-25T10:45:51.986Z,41.24
2016-09-25T10:46:51.997Z,40.84
2016-09-25T10:47:52.024Z,40.38
2016-09-25T10:48:52.049Z,40.19
2016-09-25T10:49:52.071Z,40.48
2016-09-25T10:50:52.098Z,40.28
2016-09-25T10:51:52.130Z,40.19
2016-09-25T10:52:52.148Z,40.48
2016-09-25T10:53:52.175Z,40.19
2016-09-25T10:54:52.207Z,40
2016-09-25T10:55:52.239Z,39.8
2016-09-25T10:56:52.251Z,39.61
2016-09-25T10:57:52.283Z,40.09
2016-09-25T10:58:52.303Z,39.82
2016-09-25T10:59:52.330Z,39.62
2016-09-25T11:00:52.354Z,39.34
2016-09-25T11:01:52.380Z,38.95
2016-09-25T11:02:52.406Z,39.04
2016-09-25T11:03:52.432Z,38.95
2016-09-25T11:04:52.473Z,39.14
2016-09-25T11:05:52.484Z,38.78
2016-09-25T11:06:52.510Z,38.87
2016-09-25T11:07:52.541Z,38.78
2016-09-25T11:08:52.562Z,38.68
2016-09-25T11:09:52.588Z,38.58
2016-09-25T11:10:52.613Z,38.39
2016-09-25T11:11:52.642Z,37.81
2016-09-25T11:12:52.667Z,38
2016-09-25T11:13:52.693Z,37.81
2016-09-25T11:14:52.717Z,37.9
2016-09-25T11:15:52.747Z,37.34
2016-09-25T11:16:52.771Z,37.24
2016-09-25T11:17:52.850Z,36.85
2016-09-25T11:18:52.834Z,36.85
2016-09-25T11:19:52.852Z,36.85
2016-09-25T11:20:52.881Z,36.85
2016-09-25T11:21:52.906Z,36.56
2016-09-25T11:22:52.932Z,36.56
2016-09-25T11:23:52.958Z,36.56
2016-09-25T11:24:52.984Z,36.46
2016-09-25T11:25:53.018Z,36.36
2016-09-25T11:26:53.039Z,35.71
2016-09-25T11:27:53.068Z,35.8
2016-09-25T11:28:53.104Z,36
2016-09-25T11:29:53.118Z,35.51
2016-09-25T11:30:53.145Z,35.61
2016-09-25T11:31:53.172Z,35.03
2016-09-25T11:32:53.198Z,34.35
2016-09-25T11:33:53.225Z,34.25
2016-09-25T11:34:53.250Z,34.25
2016-09-25T11:35:53.279Z,34.25
2016-09-25T11:36:53.307Z,34.06
2016-09-25T11:37:53.333Z,34.16
2016-09-25T11:38:53.360Z,33.88
2016-09-25T11:39:53.390Z,34.27
2016-09-25T11:40:53.417Z,33.88
2016-09-25T11:41:53.441Z,34.17
2016-09-25T11:42:53.479Z,33.69
2016-09-25T11:43:53.496Z,33.98
2016-09-25T11:44:53.523Z,33.69
2016-09-25T11:45:53.666Z,33.69
2016-09-25T11:46:53.682Z,33.69
2016-09-25T11:47:53.835Z,33.59
2016-09-25T11:48:53.842Z,33.29
2016-09-25T11:49:53.858Z,33.59
2016-09-25T11:50:53.868Z,33.31
2016-09-25T11:51:53.874Z,33.01
2016-09-25T11:52:54.015Z,32.82
2016-09-25T11:53:53.883Z,31.95
2016-09-25T11:54:53.893Z,32.15
2016-09-25T11:55:54.035Z,31.57
2016-09-25T11:56:54.050Z,31.47
2016-09-25T11:57:54.049Z,31.18
2016-09-25T11:58:53.996Z,31.18
2016-09-25T11:59:54.005Z,30.98
2016-09-25T12:00:54.042Z,31.08
2016-09-25T12:01:54.040Z,31.08
2016-09-25T12:02:54.116Z,30.88
2016-09-25T12:03:54.059Z,30.88
2016-09-25T12:04:54.139Z,30.88
2016-09-25T12:05:54.098Z,30.88
2016-09-25T12:06:54.132Z,30.88
2016-09-25T12:07:54.166Z,30.59
2016-09-25T12:08:54.181Z,30.69
2016-09-25T12:09:54.211Z,30.5
2016-09-25T12:10:54.237Z,30.59
2016-09-25T12:11:54.270Z,30.69
2016-09-25T12:12:54.292Z,30.69
2016-09-25T12:13:54.332Z,30.59
2016-09-25T12:14:54.353Z,30.5
2016-09-25T12:15:54.374Z,30.5
2016-09-25T12:16:54.407Z,30.3
2016-09-25T12:17:54.432Z,30.3
2016-09-25T12:18:54.459Z,30.3
2016-09-25T12:19:54.487Z,30.21
2016-09-25T12:20:54.516Z,30.4
2016-09-25T12:21:54.543Z,30.41
2016-09-25T12:22:54.571Z,30.41
2016-09-25T12:23:54.600Z,30.51
2016-09-25T12:24:54.624Z,30.61
2016-09-25T12:25:54.658Z,30.41
2016-09-25T12:26:54.681Z,31
2016-09-25T12:27:54.709Z,30.61
2016-09-25T12:28:54.741Z,30.8
2016-09-25T12:29:54.764Z,30.51
2016-09-25T12:30:54.793Z,30.51
2016-09-25T12:31:54.857Z,30.22
2016-09-25T12:32:54.850Z,30.41
2016-09-25T12:33:54.877Z,30.32
2016-09-25T12:34:54.910Z,30.41
2016-09-25T12:35:54.937Z,30.41
2016-09-25T12:36:54.962Z,30.41
2016-09-25T12:37:54.990Z,30.41
2016-09-25T12:38:55.016Z,30.41
2016-09-25T12:39:55.044Z,30.41
2016-09-25T12:40:55.073Z,30.41
2016-09-25T12:41:55.102Z,30.41
2016-09-25T12:42:55.130Z,30.41
2016-09-25T12:43:55.159Z,30.41
2016-09-25T12:44:55.187Z,30.32
2016-09-25T12:45:55.219Z,30.32
2016-09-25T12:46:55.242Z,30.32
2016-09-25T12:47:55.270Z,30.51
2016-09-25T12:48:55.299Z,30.32
2016-09-25T12:49:55.327Z,30.41
2016-09-25T12:50:55.356Z,30.41
2016-09-25T12:51:55.382Z,30.43
2016-09-25T12:52:55.412Z,30.22
2016-09-25T12:53:55.441Z,30.41
2016-09-25T12:54:55.468Z,30.12
2016-09-25T12:55:55.500Z,30.14